createdAt,value
2018-12-19T00:00:45.572Z,29.20
2018-12-19T00:01:45.486Z,28.50
2018-12-19T00:02:45.550Z,29.20
2018-12-19T00:03:45.494Z,30.10
2018-12-19T00:04:45.553Z,30.70
2018-12-19T00:05:45.486Z,28.50
2018-12-19T00:06:45.439Z,31.20
2018-12-19T00:07:45.426Z,29.40
2018-12-19T00:08:45.432Z,29.40
2018-12-19T00:09:45.388Z,26.90
2018-12-19T00:10:45.494Z,30.40
2018-12-19T00:11:45.497Z,29.50
2018-12-19T00:12:45.372Z,28.40
2018-12-19T00:13:45.389Z,29.30
2018-12-19T00:14:45.418Z,30.80
2018-12-19T00:15:45.386Z,27.70
2018-12-19T00:16:45.379Z,30.20
2018-12-19T00:17:45.318Z,27.90
2018-12-19T00:18:45.303Z,29.60
2018-12-19T00:19:45.284Z,30.20
2018-12-19T00:20:45.292Z,29.60
2018-12-19T00:21:45.300Z,31.10
2018-12-19T00:22:45.271Z,30.40
2018-12-19T00:23:45.221Z,30.30
2018-12-19T00:24:45.251Z,29.90
2018-12-19T00:25:45.295Z,31.00
2018-12-19T00:26:45.213Z,28.80
2018-12-19T00:27:45.215Z,29.90
2018-12-19T00:28:45.237Z,27.20
2018-12-19T00:29:45.180Z,30.90
2018-12-19T00:30:45.161Z,31.50
2018-12-19T00:31:45.176Z,29.40
2018-12-19T00:32:45.179Z,30.20
2018-12-19T00:33:45.104Z,31.40
2018-12-19T00:34:45.105Z,30.60
2018-12-19T00:35:45.134Z,32.00
2018-12-19T00:36:45.099Z,32.20
2018-12-19T00:37:45.197Z,32.00
2018-12-19T00:38:45.171Z,30.50
2018-12-19T00:39:45.095Z,28.50
2018-12-19T00:40:45.061Z,28.70
2018-12-19T00:41:45.077Z,28.40
2018-12-19T00:42:45.051Z,30.00
2018-12-19T00:43:45.032Z,29.50
2018-12-19T00:44:45.017Z,28.90
2018-12-19T00:45:45.047Z,30.60
2018-12-19T00:46:44.963Z,28.50
2018-12-19T00:47:44.979Z,29.60
2018-12-19T00:48:44.962Z,30.40
2018-12-19T00:49:46.207Z,31.80
2018-12-19T00:50:44.956Z,30.20
2018-12-19T00:51:45.042Z,30.80
2018-12-19T00:52:44.959Z,29.20
2018-12-19T00:53:44.928Z,31.00
2018-12-19T00:54:44.948Z,29.30
2018-12-19T00:55:44.891Z,30.60
2018-12-19T00:56:44.888Z,28.50
2018-12-19T00:57:44.875Z,29.70
2018-12-19T00:58:45.009Z,28.60
2018-12-19T00:59:44.862Z,28.60
2018-12-19T01:00:44.813Z,28.20
2018-12-19T01:01:44.880Z,30.30
2018-12-19T01:02:44.814Z,28.10
2018-12-19T01:03:44.802Z,29.20
2018-12-19T01:04:48.041Z,29.20
2018-12-19T01:05:44.813Z,29.40
2018-12-19T01:06:44.822Z,28.00
2018-12-19T01:07:44.838Z,28.90
2018-12-19T01:08:44.790Z,26.60
2018-12-19T01:09:44.753Z,29.60
2018-12-19T01:10:44.737Z,29.50
2018-12-19T01:11:44.738Z,28.40
2018-12-19T01:12:44.760Z,29.20
2018-12-19T01:13:44.751Z,26.50
2018-12-19T01:14:44.750Z,29.50
2018-12-19T01:15:44.718Z,29.30
2018-12-19T01:16:44.786Z,27.10
2018-12-19T01:17:44.711Z,28.20
2018-12-19T01:18:44.658Z,27.50
2018-12-19T01:19:44.634Z,28.90
2018-12-19T01:20:44.676Z,29.90
2018-12-19T01:21:44.683Z,29.00
2018-12-19T01:22:44.623Z,29.10
2018-12-19T01:23:44.568Z,28.00
2018-12-19T01:24:44.633Z,29.30
2018-12-19T01:25:44.604Z,29.30
2018-12-19T01:26:44.566Z,29.70
2018-12-19T01:27:44.618Z,31.00
2018-12-19T01:28:44.561Z,28.70
2018-12-19T01:29:44.632Z,30.50
2018-12-19T01:30:44.545Z,30.00
2018-12-19T01:31:44.500Z,29.70
2018-12-19T01:32:44.496Z,30.70
2018-12-19T01:33:44.553Z,30.60
2018-12-19T01:34:44.469Z,30.60
2018-12-19T01:35:44.484Z,29.70
2018-12-19T01:36:44.554Z,30.00
2018-12-19T01:37:44.532Z,29.70
2018-12-19T01:38:44.512Z,31.30
2018-12-19T01:39:44.480Z,30.40
2018-12-19T01:40:44.420Z,31.30
2018-12-19T01:41:44.399Z,31.30
2018-12-19T01:42:44.380Z,30.10
2018-12-19T01:43:44.384Z,28.00
2018-12-19T01:44:44.402Z,30.30
2018-12-19T01:45:44.370Z,29.80
2018-12-19T01:46:44.354Z,29.70
2018-12-19T01:47:44.350Z,31.40
2018-12-19T01:48:44.322Z,29.80
2018-12-19T01:49:44.321Z,29.50
2018-12-19T01:50:44.332Z,31.30
2018-12-19T01:51:44.334Z,30.00
2018-12-19T01:52:44.297Z,29.30
2018-12-19T01:53:44.312Z,31.10
2018-12-19T01:54:44.269Z,29.00
2018-12-19T01:55:44.278Z,31.20
2018-12-19T01:56:44.248Z,30.50
2018-12-19T01:57:44.292Z,28.60
2018-12-19T01:58:44.234Z,30.80
2018-12-19T01:59:44.250Z,31.00
2018-12-19T02:00:44.261Z,30.00
2018-12-19T02:01:44.194Z,31.00
2018-12-19T02:02:44.212Z,31.50
2018-12-19T02:03:44.238Z,28.70
2018-12-19T02:04:44.176Z,29.40
2018-12-19T02:05:44.181Z,29.60
2018-12-19T02:06:44.159Z,31.20
2018-12-19T02:07:44.194Z,30.20
2018-12-19T02:08:44.128Z,32.20
2018-12-19T02:09:44.126Z,31.30
2018-12-19T02:10:44.114Z,31.00
2018-12-19T02:11:44.104Z,31.10
2018-12-19T02:12:44.056Z,31.90
2018-12-19T02:13:44.089Z,31.60
2018-12-19T02:14:44.073Z,30.50
2018-12-19T02:15:44.101Z,31.90
2018-12-19T02:16:44.053Z,31.20
2018-12-19T02:17:44.069Z,31.90
2018-12-19T02:18:44.007Z,32.40
2018-12-19T02:19:44.016Z,30.50
2018-12-19T02:20:43.988Z,32.30
2018-12-19T02:21:44.006Z,31.80
2018-12-19T02:22:43.986Z,30.30
2018-12-19T02:23:43.949Z,29.30
2018-12-19T02:24:43.960Z,30.60
2018-12-19T02:25:43.958Z,29.90
2018-12-19T02:26:43.954Z,30.70
2018-12-19T02:27:43.942Z,30.20
2018-12-19T02:28:43.886Z,29.50
2018-12-19T02:29:43.942Z,30.70
2018-12-19T02:30:43.898Z,30.30
2018-12-19T02:31:43.933Z,29.20
2018-12-19T02:32:43.855Z,29.90
2018-12-19T02:33:43.943Z,29.00
2018-12-19T02:34:43.819Z,29.10
2018-12-19T02:35:43.848Z,28.80
2018-12-19T02:36:43.853Z,28.80
2018-12-19T02:37:43.832Z,30.40
2018-12-19T02:38:43.803Z,29.20
2018-12-19T02:39:43.833Z,29.50
2018-12-19T02:40:43.786Z,28.60
2018-12-19T02:41:43.879Z,28.50
2018-12-19T02:42:43.797Z,29.80
2018-12-19T02:43:43.764Z,30.10
2018-12-19T02:44:43.780Z,29.90
2018-12-19T02:45:43.724Z,30.00
2018-12-19T02:46:43.788Z,30.50
2018-12-19T02:47:43.737Z,29.30
2018-12-19T02:48:43.738Z,29.80
2018-12-19T02:49:43.725Z,28.10
2018-12-19T02:50:43.677Z,30.00
2018-12-19T02:51:43.663Z,29.00
2018-12-19T02:52:43.674Z,28.90
2018-12-19T02:53:43.662Z,26.70
2018-12-19T02:54:43.666Z,30.20
2018-12-19T02:55:43.624Z,29.10
2018-12-19T02:56:43.623Z,29.70
2018-12-19T02:57:43.662Z,28.70
2018-12-19T02:58:43.639Z,28.70
2018-12-19T02:59:43.629Z,29.60
2018-12-19T03:00:43.557Z,29.10
2018-12-19T03:01:43.579Z,28.90
2018-12-19T03:02:43.558Z,29.30
2018-12-19T03:03:43.635Z,27.60
2018-12-19T03:04:43.531Z,27.90
2018-12-19T03:05:43.647Z,28.40
2018-12-19T03:06:43.564Z,29.00
2018-12-19T03:07:43.543Z,29.30
2018-12-19T03:08:43.499Z,28.00
2018-12-19T03:09:43.551Z,28.90
2018-12-19T03:10:43.486Z,28.10
2018-12-19T03:11:43.471Z,28.20
2018-12-19T03:12:43.476Z,28.00
2018-12-19T03:13:43.425Z,27.70
2018-12-19T03:14:43.455Z,29.90
2018-12-19T03:15:43.417Z,28.90
2018-12-19T03:16:43.427Z,27.80
2018-12-19T03:17:43.398Z,27.40
2018-12-19T03:18:43.410Z,28.00
2018-12-19T03:19:43.356Z,29.40
2018-12-19T03:20:43.352Z,26.90
2018-12-19T03:21:43.393Z,27.30
2018-12-19T03:22:43.413Z,27.70
2018-12-19T03:23:43.368Z,28.70
2018-12-19T03:24:43.330Z,29.00
2018-12-19T03:25:43.318Z,28.80
2018-12-19T03:26:43.326Z,29.80
2018-12-19T03:27:43.277Z,29.10
2018-12-19T03:28:43.266Z,26.30
2018-12-19T03:29:43.268Z,29.70
2018-12-19T03:30:43.277Z,28.90
2018-12-19T03:31:43.243Z,28.50
2018-12-19T03:32:43.311Z,28.90
2018-12-19T03:33:43.245Z,29.50
2018-12-19T03:34:43.227Z,28.60
2018-12-19T03:35:43.230Z,28.40
2018-12-19T03:36:43.196Z,26.20
2018-12-19T03:37:43.207Z,28.80
2018-12-19T03:38:43.237Z,29.30
2018-12-19T03:39:50.026Z,27.50
2018-12-19T03:40:44.216Z,28.80
2018-12-19T03:41:43.175Z,28.90
2018-12-19T03:42:43.144Z,27.50
2018-12-19T03:43:43.145Z,27.70
2018-12-19T03:44:43.151Z,28.60
2018-12-19T03:45:43.148Z,26.40
2018-12-19T03:46:43.099Z,27.90
2018-12-19T03:47:43.148Z,28.70
2018-12-19T03:48:43.087Z,29.30
2018-12-19T03:49:43.095Z,28.90
2018-12-19T03:50:43.047Z,27.40
2018-12-19T03:51:43.049Z,28.70
2018-12-19T03:52:43.047Z,28.50
2018-12-19T03:53:43.009Z,27.90
2018-12-19T03:54:43.017Z,29.50
2018-12-19T03:55:45.659Z,29.70
2018-12-19T03:56:42.963Z,26.90
2018-12-19T03:57:43.000Z,27.80
2018-12-19T03:58:43.015Z,28.20
2018-12-19T03:59:44.677Z,28.40
2018-12-19T04:00:43.031Z,26.50
2018-12-19T04:01:42.952Z,28.50
2018-12-19T04:02:42.904Z,27.40
2018-12-19T04:03:42.937Z,28.30
2018-12-19T04:04:42.890Z,26.70
2018-12-19T04:05:42.931Z,27.10
2018-12-19T04:06:42.960Z,28.10
2018-12-19T04:07:42.849Z,28.40
2018-12-19T04:08:42.881Z,26.30
2018-12-19T04:09:42.857Z,27.00
2018-12-19T04:10:42.852Z,27.80
2018-12-19T04:11:42.851Z,27.30
2018-12-19T04:12:42.841Z,26.60
2018-12-19T04:13:42.829Z,26.20
2018-12-19T04:14:42.839Z,28.00
2018-12-19T04:15:42.791Z,28.30
2018-12-19T04:16:42.875Z,27.00
2018-12-19T04:17:44.670Z,26.80
2018-12-19T04:18:44.707Z,27.00
2018-12-19T04:19:42.746Z,26.60
2018-12-19T04:20:42.780Z,26.70
2018-12-19T04:21:42.706Z,28.20
2018-12-19T04:22:42.730Z,26.10
2018-12-19T04:23:42.712Z,27.80
2018-12-19T04:24:42.698Z,26.40
2018-12-19T04:25:42.679Z,27.40
2018-12-19T04:26:42.690Z,27.40
2018-12-19T04:27:42.634Z,26.10
2018-12-19T04:28:42.683Z,25.00
2018-12-19T04:29:42.652Z,26.70
2018-12-19T04:30:42.705Z,25.90
2018-12-19T04:31:42.649Z,24.90
2018-12-19T04:32:42.590Z,25.60
2018-12-19T04:33:44.164Z,24.40
2018-12-19T04:34:42.606Z,26.70
2018-12-19T04:35:42.584Z,26.10
2018-12-19T04:36:42.611Z,22.90
2018-12-19T04:37:42.615Z,26.00
2018-12-19T04:38:42.557Z,26.00
2018-12-19T04:39:42.554Z,27.00
2018-12-19T04:40:42.544Z,23.70
2018-12-19T04:41:42.527Z,24.10
2018-12-19T04:42:42.574Z,24.50
2018-12-19T04:43:42.578Z,25.30
2018-12-19T04:44:42.504Z,25.10
2018-12-19T04:45:42.510Z,24.70
2018-12-19T04:46:42.468Z,24.30
2018-12-19T04:47:42.502Z,26.00
2018-12-19T04:48:42.465Z,25.30
2018-12-19T04:49:42.434Z,24.60
2018-12-19T04:50:42.416Z,24.30
2018-12-19T04:51:42.407Z,26.10
2018-12-19T04:52:42.413Z,24.70
2018-12-19T04:53:42.430Z,26.00
2018-12-19T04:54:42.396Z,23.70
2018-12-19T04:55:42.374Z,25.40
2018-12-19T04:56:42.350Z,22.50
2018-12-19T04:57:42.349Z,23.90
2018-12-19T04:58:42.317Z,25.60
2018-12-19T04:59:42.353Z,25.00
2018-12-19T05:00:42.366Z,26.60
2018-12-19T05:01:42.360Z,25.60
2018-12-19T05:02:42.334Z,25.40
2018-12-19T05:03:42.308Z,24.50
2018-12-19T05:04:42.267Z,23.60
2018-12-19T05:05:42.274Z,25.00
2018-12-19T05:06:42.255Z,17.60
2018-12-19T05:07:42.304Z,24.90
2018-12-19T05:08:42.224Z,25.70
2018-12-19T05:09:42.187Z,24.10
2018-12-19T05:10:42.243Z,24.90
2018-12-19T05:11:42.237Z,25.40
2018-12-19T05:12:42.198Z,24.70
2018-12-19T05:13:42.246Z,24.20
2018-12-19T05:14:42.298Z,26.70
2018-12-19T05:15:42.181Z,25.60
2018-12-19T05:16:42.139Z,25.60
2018-12-19T05:17:42.253Z,26.00
2018-12-19T05:18:42.129Z,24.60
2018-12-19T05:19:42.119Z,23.90
2018-12-19T05:20:42.249Z,24.10
2018-12-19T05:21:42.224Z,23.20
2018-12-19T05:22:42.101Z,24.40
2018-12-19T05:23:42.086Z,23.50
2018-12-19T05:24:42.137Z,22.60
2018-12-19T05:25:42.066Z,24.20
2018-12-19T05:26:42.040Z,22.40
2018-12-19T05:27:42.174Z,22.90
2018-12-19T05:28:42.018Z,21.80
2018-12-19T05:29:42.131Z,24.60
2018-12-19T05:30:43.084Z,23.20
2018-12-19T05:31:42.001Z,25.00
2018-12-19T05:32:44.715Z,23.30
2018-12-19T05:33:58.174Z,23.50
2018-12-19T05:35:52.367Z,21.50
2018-12-19T05:36:52.156Z,24.10
2018-12-19T05:38:22.936Z,22.50
2018-12-19T05:39:22.893Z,24.10
2018-12-19T05:40:53.622Z,19.20
2018-12-19T05:41:53.467Z,20.80
2018-12-19T05:43:24.299Z,22.30
2018-12-19T05:44:24.201Z,21.70
2018-12-19T05:45:55.105Z,24.70
2018-12-19T05:46:54.837Z,22.50
2018-12-19T05:48:25.709Z,23.60
2018-12-19T05:49:25.633Z,24.40
2018-12-19T05:50:56.281Z,22.50
2018-12-19T05:51:56.199Z,23.10
2018-12-19T05:53:27.853Z,22.00
2018-12-19T05:54:26.831Z,24.40
2018-12-19T05:55:57.643Z,21.40
2018-12-19T05:56:57.641Z,22.80
2018-12-19T05:58:28.273Z,22.40
2018-12-19T05:59:28.181Z,24.60
2018-12-19T06:00:28.200Z,25.20
2018-12-19T06:01:28.175Z,23.10
2018-12-19T06:02:58.940Z,22.90
2018-12-19T06:03:59.821Z,24.70
2018-12-19T06:05:30.965Z,24.10
2018-12-19T06:06:30.495Z,22.40
2018-12-19T06:08:01.305Z,24.40
2018-12-19T06:09:01.241Z,22.70
2018-12-19T06:10:31.967Z,21.20
2018-12-19T06:11:32.791Z,22.30
2018-12-19T06:13:03.767Z,23.40
2018-12-19T06:14:03.636Z,23.40
2018-12-19T06:15:34.459Z,20.90
2018-12-19T06:16:34.339Z,23.60
2018-12-19T06:18:05.066Z,23.00
2018-12-19T06:19:04.920Z,23.50
2018-12-19T06:20:35.774Z,24.50
2018-12-19T06:21:35.677Z,23.00
2018-12-19T06:23:06.465Z,21.40
2018-12-19T06:24:07.167Z,23.60
2018-12-19T06:25:38.045Z,18.50
2018-12-19T06:26:37.934Z,22.80
2018-12-19T06:28:09.785Z,20.80
2018-12-19T06:29:09.582Z,21.50
2018-12-19T06:30:40.467Z,23.10
2018-12-19T06:31:40.257Z,22.30
2018-12-19T06:33:11.137Z,19.20
2018-12-19T06:34:10.944Z,23.20
2018-12-19T06:35:41.732Z,21.90
2018-12-19T06:36:41.683Z,23.20
2018-12-19T06:38:12.464Z,21.60
2018-12-19T06:39:12.465Z,23.00
2018-12-19T06:40:43.963Z,22.20
2018-12-19T06:41:43.996Z,23.80
2018-12-19T06:43:14.906Z,23.90
2018-12-19T06:44:14.699Z,23.50
2018-12-19T06:45:45.610Z,19.80
2018-12-19T06:46:45.415Z,19.40
2018-12-19T06:48:16.285Z,23.10
2018-12-19T06:49:16.082Z,24.00
2018-12-19T06:50:46.976Z,22.00
2018-12-19T06:51:46.703Z,23.30
2018-12-19T06:53:19.152Z,14.10
2018-12-19T06:54:18.456Z,18.90
2018-12-19T06:55:49.704Z,19.60
2018-12-19T06:56:49.057Z,21.80
2018-12-19T06:58:20.845Z,17.10
2018-12-19T06:59:21.636Z,21.30
2018-12-19T07:00:52.559Z,22.60
2018-12-19T07:01:52.368Z,23.20
2018-12-19T07:03:23.250Z,23.40
2018-12-19T07:04:23.224Z,21.30
2018-12-19T07:06:07.516Z,20.70
2018-12-19T07:07:07.380Z,22.10
2018-12-19T07:08:38.294Z,19.70
2018-12-19T07:09:38.080Z,21.40
2018-12-19T07:11:09.773Z,21.60
2018-12-19T07:12:10.586Z,23.00
2018-12-19T07:13:41.691Z,22.30
2018-12-19T07:14:42.262Z,23.40
2018-12-19T07:16:13.212Z,21.10
2018-12-19T07:17:13.100Z,22.50
2018-12-19T07:18:43.952Z,21.40
2018-12-19T07:19:43.684Z,23.20
2018-12-19T07:21:14.497Z,19.10
2018-12-19T07:22:15.278Z,20.80
2018-12-19T07:23:46.110Z,16.50
2018-12-19T07:24:45.980Z,18.90
2018-12-19T07:26:16.820Z,19.30
2018-12-19T07:27:16.814Z,21.30
2018-12-19T07:28:48.452Z,20.40
2018-12-19T07:29:48.454Z,22.20
2018-12-19T07:31:19.279Z,16.50
2018-12-19T07:32:18.968Z,19.10
2018-12-19T07:33:49.300Z,18.80
2018-12-19T07:34:49.118Z,20.60
2018-12-19T07:36:19.982Z,18.30
2018-12-19T07:37:19.794Z,20.30
2018-12-19T07:38:50.790Z,19.10
2018-12-19T07:39:50.506Z,19.60
2018-12-19T07:41:21.398Z,19.10
2018-12-19T07:42:21.204Z,20.40
2018-12-19T07:43:51.346Z,17.90
2018-12-19T07:44:51.227Z,20.60
2018-12-19T07:46:22.468Z,22.20
2018-12-19T07:47:21.973Z,21.80
2018-12-19T07:48:52.896Z,19.80
2018-12-19T07:49:52.644Z,22.50
2018-12-19T07:51:23.637Z,20.30
2018-12-19T07:52:23.362Z,21.50
2018-12-19T07:53:55.278Z,20.40
2018-12-19T07:54:55.103Z,21.60
2018-12-19T07:56:25.800Z,15.60
2018-12-19T07:57:25.665Z,19.60
2018-12-19T07:58:56.004Z,21.70
2018-12-19T07:59:55.780Z,20.00
2018-12-19T08:01:27.649Z,21.20
2018-12-19T08:02:27.484Z,22.40
2018-12-19T08:03:58.398Z,21.80
2018-12-19T08:04:58.129Z,22.40
2018-12-19T08:06:29.987Z,17.50
2018-12-19T08:07:29.801Z,21.30
2018-12-19T08:09:00.612Z,19.50
2018-12-19T08:10:00.434Z,21.10
2018-12-19T08:11:31.458Z,21.10
2018-12-19T08:12:36.030Z,21.20
2018-12-19T08:14:03.955Z,19.90
2018-12-19T08:15:02.800Z,21.00
2018-12-19T08:16:34.075Z,19.80
2018-12-19T08:17:33.505Z,20.30
2018-12-19T08:19:04.236Z,20.10
2018-12-19T08:20:05.134Z,20.30
2018-12-19T08:21:36.086Z,17.40
2018-12-19T08:22:35.980Z,19.50
2018-12-19T08:24:06.790Z,19.60
2018-12-19T08:25:06.532Z,21.80
2018-12-19T08:26:37.395Z,18.70
2018-12-19T08:27:37.162Z,21.70
2018-12-19T08:29:07.524Z,16.70
2018-12-19T08:30:07.354Z,19.00
2018-12-19T08:31:38.478Z,18.00
2018-12-19T08:32:37.972Z,20.30
2018-12-19T08:34:08.787Z,20.50
2018-12-19T08:35:08.642Z,21.50
2018-12-19T08:36:40.412Z,19.90
2018-12-19T08:37:40.292Z,20.50
2018-12-19T08:39:11.142Z,19.50
2018-12-19T08:40:10.941Z,19.80
2018-12-19T08:41:42.000Z,19.70
2018-12-19T08:42:41.749Z,20.60
2018-12-19T08:44:13.504Z,18.90
2018-12-19T08:45:13.316Z,17.90
2018-12-19T08:46:44.152Z,17.70
2018-12-19T08:47:43.998Z,19.70
2018-12-19T08:49:16.071Z,18.30
2018-12-19T08:50:15.762Z,18.90
2018-12-19T08:51:46.722Z,17.60
2018-12-19T08:52:46.460Z,19.10
2018-12-19T08:54:17.525Z,20.10
2018-12-19T08:55:17.024Z,20.60
2018-12-19T08:56:49.300Z,19.80
2018-12-19T08:57:48.790Z,21.50
2018-12-19T08:59:19.055Z,19.10
2018-12-19T09:00:18.798Z,19.80
2018-12-19T09:01:49.634Z,20.40
2018-12-19T09:02:50.456Z,19.70
2018-12-19T09:04:25.768Z,20.50
2018-12-19T09:05:21.092Z,20.50
2018-12-19T09:06:52.023Z,20.60
2018-12-19T09:07:51.941Z,20.60
2018-12-19T09:09:22.780Z,21.10
2018-12-19T09:10:22.423Z,21.10
2018-12-19T09:11:54.530Z,19.80
2018-12-19T09:12:54.275Z,20.60
2018-12-19T09:14:26.835Z,17.20
2018-12-19T09:15:27.764Z,20.40
2018-12-19T09:16:57.625Z,17.90
2018-12-19T09:17:57.598Z,18.80
2018-12-19T09:19:30.524Z,19.40
2018-12-19T09:20:29.185Z,19.30
2018-12-19T09:22:00.938Z,19.50
2018-12-19T09:23:00.760Z,21.60
2018-12-19T09:24:32.752Z,19.00
2018-12-19T09:26:23.247Z,20.20
2018-12-19T09:28:13.706Z,17.40
2018-12-19T09:29:12.706Z,18.50
2018-12-19T09:30:44.306Z,18.40
2018-12-19T09:31:43.410Z,20.30
2018-12-19T09:33:14.289Z,17.70
2018-12-19T09:34:14.268Z,20.30
2018-12-19T09:35:58.650Z,19.50
2018-12-19T09:36:59.535Z,18.90
2018-12-19T09:38:30.273Z,17.70
2018-12-19T09:39:30.149Z,18.80
2018-12-19T09:41:02.115Z,19.50
2018-12-19T09:42:01.856Z,19.90
2018-12-19T09:43:33.585Z,20.30
2018-12-19T09:44:34.398Z,18.90
2018-12-19T09:46:05.835Z,18.10
2018-12-19T09:47:06.134Z,18.80
2018-12-19T09:48:37.012Z,19.30
2018-12-19T09:49:36.968Z,18.80
2018-12-19T09:51:08.756Z,20.10
2018-12-19T09:52:08.560Z,19.60
2018-12-19T09:53:40.268Z,18.50
2018-12-19T09:54:40.164Z,19.80
2018-12-19T09:56:11.453Z,19.00
2018-12-19T09:57:10.863Z,19.30
2018-12-19T09:58:42.750Z,15.70
2018-12-19T09:59:42.470Z,17.50
2018-12-19T10:01:15.173Z,19.40
2018-12-19T10:02:14.199Z,19.90
2018-12-19T10:03:44.980Z,15.30
2018-12-19T10:04:44.886Z,17.30
2018-12-19T10:06:16.535Z,19.50
2018-12-19T10:07:17.334Z,19.10
2018-12-19T10:08:48.430Z,19.40
2018-12-19T10:09:48.226Z,20.00
2018-12-19T10:11:20.202Z,19.00
2018-12-19T10:12:19.848Z,19.10
2018-12-19T10:13:50.783Z,19.40
2018-12-19T10:14:50.506Z,20.60
2018-12-19T10:16:22.402Z,18.20
2018-12-19T10:17:22.175Z,18.70
2018-12-19T10:18:55.015Z,18.30
2018-12-19T10:19:52.901Z,19.80
2018-12-19T10:21:24.004Z,19.00
2018-12-19T10:22:23.598Z,19.90
2018-12-19T10:23:55.908Z,18.90
2018-12-19T10:24:55.140Z,19.80
2018-12-19T10:26:25.995Z,17.00
2018-12-19T10:27:25.835Z,17.60
2018-12-19T10:28:56.859Z,18.00
2018-12-19T10:29:56.531Z,18.40
2018-12-19T10:31:27.554Z,19.20
2018-12-19T10:32:27.257Z,20.10
2018-12-19T10:33:59.424Z,18.70
2018-12-19T10:34:58.906Z,17.30
2018-12-19T10:36:29.997Z,14.20
2018-12-19T10:37:29.552Z,18.90
2018-12-19T10:39:00.510Z,17.10
2018-12-19T10:40:00.234Z,18.70
2018-12-19T10:41:31.148Z,18.40
2018-12-19T10:42:30.864Z,19.40
2018-12-19T10:44:02.795Z,16.70
2018-12-19T10:45:02.590Z,18.30
2018-12-19T10:46:34.832Z,17.60
2018-12-19T10:47:34.196Z,18.20
2018-12-19T10:49:05.117Z,17.00
2018-12-19T10:50:04.902Z,18.10
2018-12-19T10:51:36.752Z,13.90
2018-12-19T10:52:37.551Z,16.50
2018-12-19T10:54:08.441Z,19.30
2018-12-19T10:55:08.282Z,19.30
2018-12-19T10:56:39.815Z,15.20
2018-12-19T10:57:39.878Z,17.40
2018-12-19T10:59:10.932Z,16.60
2018-12-19T11:00:10.564Z,18.20
2018-12-19T11:01:41.626Z,17.10
2018-12-19T11:02:40.754Z,17.90
2018-12-19T11:04:11.614Z,16.10
2018-12-19T11:05:11.360Z,18.40
2018-12-19T11:06:45.126Z,14.80
2018-12-19T11:07:43.026Z,17.10
2018-12-19T11:09:13.956Z,15.10
2018-12-19T11:10:13.156Z,16.20
2018-12-19T11:11:44.218Z,16.90
2018-12-19T11:12:43.460Z,18.10
2018-12-19T11:14:13.538Z,14.90
2018-12-19T11:15:13.458Z,15.70
2018-12-19T11:16:45.710Z,17.90
2018-12-19T11:17:45.211Z,17.90
2018-12-19T11:19:16.041Z,15.40
2018-12-19T11:20:15.927Z,17.50
2018-12-19T11:21:48.084Z,18.00
2018-12-19T11:22:47.454Z,16.80
2018-12-19T11:24:18.292Z,14.50
2018-12-19T11:25:18.132Z,17.00
2018-12-19T11:26:48.924Z,15.00
2018-12-19T11:27:48.948Z,16.40
2018-12-19T11:29:19.780Z,14.10
2018-12-19T11:30:19.678Z,16.10
2018-12-19T11:31:51.332Z,15.50
2018-12-19T11:32:51.182Z,17.50
2018-12-19T11:34:22.604Z,17.10
2018-12-19T11:35:21.893Z,17.70
2018-12-19T11:36:53.770Z,15.90
2018-12-19T11:37:53.576Z,17.60
2018-12-19T11:39:27.168Z,15.20
2018-12-19T11:40:26.222Z,17.20
2018-12-19T11:41:57.375Z,15.50
2018-12-19T11:42:56.893Z,16.80
2018-12-19T11:44:27.232Z,13.50
2018-12-19T11:45:27.056Z,17.00
2018-12-19T11:46:58.406Z,16.50
2018-12-19T11:47:58.716Z,16.50
2018-12-19T11:49:31.440Z,17.90
2018-12-19T11:50:29.354Z,17.80
2018-12-19T11:52:05.146Z,15.90
2018-12-19T11:53:01.117Z,16.70
2018-12-19T11:54:34.708Z,16.30
2018-12-19T11:55:31.680Z,18.00
2018-12-19T11:57:02.800Z,15.70
2018-12-19T11:58:02.416Z,17.80
2018-12-19T11:59:34.648Z,18.30
2018-12-19T12:00:34.180Z,17.30
2018-12-19T12:02:06.094Z,15.80
2018-12-19T12:03:05.684Z,17.30
2018-12-19T12:04:37.998Z,13.60
2018-12-19T12:05:37.461Z,15.80
2018-12-19T12:07:09.177Z,14.10
2018-12-19T12:08:09.174Z,17.10
2018-12-19T12:09:41.598Z,13.50
2018-12-19T12:10:40.612Z,16.70
2018-12-19T12:12:13.261Z,15.50
2018-12-19T12:13:12.354Z,17.40
2018-12-19T12:14:45.286Z,16.40
2018-12-19T12:15:44.018Z,17.10
2018-12-19T12:17:15.909Z,16.60
2018-12-19T12:18:15.758Z,17.40
2018-12-19T12:19:47.509Z,15.20
2018-12-19T12:20:48.314Z,17.70
2018-12-19T12:22:25.488Z,16.30
2018-12-19T12:23:18.897Z,17.80
2018-12-19T12:24:50.811Z,17.20
2018-12-19T12:25:50.927Z,17.60
2018-12-19T12:27:23.694Z,15.60
2018-12-19T12:28:23.427Z,16.50
2018-12-19T12:29:55.222Z,16.50
2018-12-19T12:30:54.269Z,16.90
2018-12-19T12:32:25.856Z,15.30
2018-12-19T12:33:25.640Z,16.70
2018-12-19T12:34:57.428Z,15.20
2018-12-19T12:35:57.276Z,16.60
2018-12-19T12:37:31.482Z,17.10
2018-12-19T12:39:20.205Z,16.60
2018-12-19T12:40:20.322Z,17.70
2018-12-19T12:41:52.503Z,16.10
2018-12-19T12:42:51.977Z,18.10
2018-12-19T12:44:25.427Z,18.20
2018-12-19T12:45:25.483Z,16.60
2018-12-19T12:46:57.395Z,14.60
2018-12-19T12:48:46.444Z,13.70
2018-12-19T12:50:36.494Z,15.30
2018-12-19T12:51:36.289Z,16.80
2018-12-19T12:53:08.461Z,15.60
2018-12-19T12:54:07.909Z,17.40
2018-12-19T12:55:39.727Z,16.10
2018-12-19T12:56:39.586Z,16.70
2018-12-19T12:58:11.888Z,15.90
2018-12-19T12:59:11.321Z,17.80
2018-12-19T13:00:43.523Z,16.70
2018-12-19T13:01:42.868Z,17.60
2018-12-19T13:03:14.733Z,17.70
2018-12-19T13:05:04.942Z,17.60
2018-12-19T13:06:04.837Z,18.30
2018-12-19T13:07:47.381Z,16.40
2018-12-19T13:08:36.581Z,17.90
2018-12-19T13:10:08.662Z,16.80
2018-12-19T13:11:08.447Z,17.20
2018-12-19T13:12:40.212Z,15.90
2018-12-19T13:13:39.782Z,17.40
2018-12-19T13:15:13.469Z,15.50
2018-12-19T13:16:11.681Z,16.40
2018-12-19T13:17:43.283Z,15.00
2018-12-19T13:18:44.245Z,17.20
2018-12-19T13:20:15.121Z,15.80
2018-12-19T13:21:15.745Z,16.80
2018-12-19T13:22:47.089Z,16.10
2018-12-19T13:23:46.355Z,17.80
2018-12-19T13:25:17.593Z,16.70
2018-12-19T13:26:17.186Z,17.80
2018-12-19T13:27:48.925Z,17.10
2018-12-19T13:28:48.673Z,18.50
2018-12-19T13:30:19.710Z,17.30
2018-12-19T13:31:19.353Z,18.40
2018-12-19T13:32:50.098Z,17.00
2018-12-19T13:33:51.138Z,17.90
2018-12-19T13:35:23.764Z,15.30
2018-12-19T13:36:22.569Z,17.80
2018-12-19T13:37:54.419Z,16.30
2018-12-19T13:38:53.609Z,18.00
2018-12-19T13:40:27.997Z,17.40
2018-12-19T13:41:25.015Z,18.80
2018-12-19T13:42:56.447Z,15.10
2018-12-19T13:43:55.713Z,16.90
2018-12-19T13:45:26.692Z,14.90
2018-12-19T13:46:26.412Z,16.90
2018-12-19T13:47:58.199Z,17.60
2018-12-19T13:48:58.036Z,18.00
2018-12-19T13:50:30.273Z,17.20
2018-12-19T13:51:29.687Z,18.10
2018-12-19T13:53:00.777Z,16.90
2018-12-19T13:54:50.931Z,15.90
2018-12-19T13:55:51.396Z,18.20
2018-12-19T13:57:22.609Z,16.80
2018-12-19T13:58:22.359Z,18.30
2018-12-19T13:59:54.272Z,16.90
2018-12-19T14:00:53.927Z,16.60
2018-12-19T14:02:26.241Z,17.40
2018-12-19T14:03:25.591Z,18.30
2018-12-19T14:04:57.879Z,19.90
2018-12-19T14:05:57.486Z,19.90
2018-12-19T14:07:33.793Z,18.20
2018-12-19T14:09:20.400Z,18.20
2018-12-19T14:10:20.021Z,17.80
2018-12-19T14:11:53.191Z,15.90
2018-12-19T14:12:51.647Z,18.00
2018-12-19T14:14:24.842Z,18.80
2018-12-19T14:16:27.860Z,19.50
2018-12-19T14:18:05.682Z,18.90
2018-12-19T14:19:05.547Z,19.60
2018-12-19T14:20:37.345Z,19.20
2018-12-19T14:21:36.724Z,18.60
2018-12-19T14:23:09.353Z,16.00
2018-12-19T14:24:08.914Z,18.50
2018-12-19T14:25:39.885Z,18.10
2018-12-19T14:26:39.931Z,19.50
2018-12-19T14:28:11.426Z,18.90
2018-12-19T14:29:11.233Z,20.60
2018-12-19T14:30:42.126Z,18.60
2018-12-19T14:31:41.946Z,20.60
2018-12-19T14:33:12.795Z,19.80
2018-12-19T14:34:12.685Z,20.70
2018-12-19T14:35:44.028Z,17.10
2018-12-19T14:36:43.456Z,19.40
2018-12-19T14:38:15.691Z,19.00
2018-12-19T14:39:15.183Z,20.10
2018-12-19T14:40:48.165Z,19.50
2018-12-19T14:41:46.714Z,20.30
2018-12-19T14:43:18.553Z,20.10
2018-12-19T14:44:18.855Z,21.10
2018-12-19T14:46:13.789Z,18.00
2018-12-19T14:47:13.018Z,21.20
2018-12-19T14:48:47.559Z,19.50
2018-12-19T14:49:45.532Z,20.30
2018-12-19T14:51:29.059Z,19.80
2018-12-19T14:53:10.221Z,22.00
2018-12-19T14:54:07.269Z,21.50